createdAt,value
2023-05-21T00:01:20.841Z,87.38
2023-05-21T00:02:52.718Z,86.27
2023-05-21T00:04:25.518Z,86.11
2023-05-21T00:05:57.341Z,85.41
2023-05-21T00:07:29.078Z,85.11
2023-05-21T00:09:00.703Z,85.16
2023-05-21T00:10:32.318Z,84.54
2023-05-21T00:12:04.445Z,86.37
2023-05-21T00:13:36.221Z,85.71
2023-05-21T00:15:10.210Z,86.14
2023-05-21T00:16:42.030Z,85.69
2023-05-21T00:18:13.920Z,84.77
2023-05-21T00:19:45.570Z,85.16
2023-05-21T00:21:17.466Z,86.12
2023-05-21T00:22:49.197Z,84.00
2023-05-21T00:24:20.812Z,84.83
2023-05-21T00:25:52.531Z,85.63
2023-05-21T00:27:24.173Z,84.97
2023-05-21T00:28:55.836Z,85.41
2023-05-21T00:30:28.841Z,86.14
2023-05-21T00:32:00.681Z,85.73
2023-05-21T00:33:32.474Z,85.16
2023-05-21T00:35:05.365Z,84.91
2023-05-21T00:36:37.040Z,85.08
2023-05-21T00:38:08.772Z,84.82
2023-05-21T00:39:40.484Z,85.05
2023-05-21T00:41:12.136Z,84.84
2023-05-21T00:42:47.846Z,85.23
2023-05-21T00:44:20.532Z,84.82
2023-05-21T00:45:53.887Z,85.90
2023-05-21T00:47:26.956Z,85.05
2023-05-21T00:48:58.809Z,85.35
2023-05-21T00:50:30.788Z,85.27
2023-05-21T00:52:02.503Z,86.08
2023-05-21T00:53:36.915Z,85.62
2023-05-21T00:55:09.628Z,85.66
2023-05-21T00:56:41.270Z,85.29
2023-05-21T00:58:12.936Z,84.92
2023-05-21T00:59:44.631Z,85.39
2023-05-21T01:01:18.433Z,85.84
2023-05-21T01:02:50.745Z,85.62
2023-05-21T01:04:22.820Z,85.40
2023-05-21T01:05:59.803Z,85.15
2023-05-21T01:07:34.688Z,85.20
2023-05-21T01:09:07.268Z,86.27
2023-05-21T01:10:38.978Z,86.16
2023-05-21T01:12:10.604Z,85.50
2023-05-21T01:13:42.683Z,85.45
2023-05-21T01:15:14.410Z,85.18
2023-05-21T01:16:49.298Z,84.96
2023-05-21T01:18:21.444Z,85.52
2023-05-21T01:19:54.607Z,84.44
2023-05-21T01:21:28.435Z,85.20
2023-05-21T01:23:01.473Z,84.93
2023-05-21T01:24:33.099Z,86.94
2023-05-21T01:26:04.852Z,89.13
2023-05-21T01:27:36.469Z,86.26
2023-05-21T01:29:12.887Z,85.57
2023-05-21T01:30:44.595Z,85.95
2023-05-21T01:32:18.430Z,85.68
2023-05-21T01:33:50.559Z,85.13
2023-05-21T01:35:23.121Z,84.48
2023-05-21T01:36:57.346Z,86.16
2023-05-21T01:38:34.102Z,86.79
2023-05-21T01:40:08.842Z,86.73
2023-05-21T01:41:42.089Z,86.67
2023-05-21T01:43:13.730Z,85.92
2023-05-21T01:44:46.123Z,85.35
2023-05-21T01:46:20.474Z,86.15
2023-05-21T01:47:52.334Z,87.85
2023-05-21T01:49:23.999Z,88.09
2023-05-21T01:50:55.739Z,89.60
2023-05-21T01:52:27.385Z,89.53
2023-05-21T01:54:00.456Z,88.35
2023-05-21T01:55:32.186Z,88.40
2023-05-21T01:57:04.074Z,87.05
2023-05-21T01:58:35.742Z,86.87
2023-05-21T02:00:09.037Z,86.10
2023-05-21T02:01:40.741Z,86.83
2023-05-21T02:03:13.041Z,86.42
2023-05-21T02:04:46.160Z,86.28
2023-05-21T02:06:18.007Z,85.98
2023-05-21T02:07:50.982Z,86.44
2023-05-21T02:09:23.961Z,87.30
2023-05-21T02:10:55.641Z,86.13
2023-05-21T02:12:28.325Z,86.65
2023-05-21T02:14:00.567Z,87.63
2023-05-21T02:15:34.606Z,86.44
2023-05-21T02:17:08.086Z,86.72
2023-05-21T02:18:42.119Z,86.45
2023-05-21T02:20:13.923Z,87.47
2023-05-21T02:21:45.979Z,86.22
2023-05-21T02:23:17.673Z,86.51
2023-05-21T02:24:50.652Z,87.18
2023-05-21T02:26:22.765Z,85.81
2023-05-21T02:27:56.664Z,85.99
2023-05-21T02:29:28.380Z,86.75
2023-05-21T02:31:00.642Z,85.92
2023-05-21T02:32:32.436Z,87.01
2023-05-21T02:34:04.182Z,86.57
2023-05-21T02:35:36.087Z,86.71
2023-05-21T02:37:09.676Z,87.11
2023-05-21T02:38:43.508Z,86.35
2023-05-21T02:40:16.737Z,86.53
2023-05-21T02:41:48.407Z,86.39
2023-05-21T02:43:20.151Z,86.17
2023-05-21T02:44:51.894Z,87.15
2023-05-21T02:46:23.673Z,87.47
2023-05-21T02:47:55.400Z,87.36
2023-05-21T02:49:27.047Z,87.01
2023-05-21T02:50:58.703Z,87.00
2023-05-21T02:52:30.424Z,87.00
2023-05-21T02:54:02.076Z,86.12
2023-05-21T02:55:35.573Z,86.49
2023-05-21T02:57:07.459Z,87.19
2023-05-21T02:58:39.122Z,86.66
2023-05-21T03:00:11.917Z,86.27
2023-05-21T03:01:45.231Z,87.09
2023-05-21T03:03:17.182Z,86.15
2023-05-21T03:04:48.944Z,86.45
2023-05-21T03:06:20.633Z,86.88
2023-05-21T03:07:53.300Z,86.85
2023-05-21T03:09:25.027Z,86.20
2023-05-21T03:10:58.040Z,85.66
2023-05-21T03:12:29.664Z,86.24
2023-05-21T03:14:01.559Z,86.04
2023-05-21T03:15:33.890Z,85.45
2023-05-21T03:17:06.191Z,86.85
2023-05-21T03:18:38.171Z,87.40
2023-05-21T03:20:16.173Z,86.47
2023-05-21T03:21:49.129Z,86.18
2023-05-21T03:23:21.784Z,86.33
2023-05-21T03:24:53.620Z,86.13
2023-05-21T03:26:29.564Z,85.58
2023-05-21T03:28:01.194Z,87.30
2023-05-21T03:29:32.901Z,86.25
2023-05-21T03:31:04.809Z,85.52
2023-05-21T03:32:38.043Z,86.69
2023-05-21T03:34:09.778Z,86.21
2023-05-21T03:35:41.423Z,86.41
2023-05-21T03:37:13.055Z,87.78
2023-05-21T03:38:44.717Z,86.85
2023-05-21T03:40:16.576Z,86.92
2023-05-21T03:41:49.594Z,86.25
2023-05-21T03:43:21.369Z,87.00
2023-05-21T03:44:53.032Z,87.21
2023-05-21T03:46:24.775Z,86.41
2023-05-21T03:47:56.418Z,86.24
2023-05-21T03:49:28.053Z,86.01
2023-05-21T03:50:59.770Z,88.13
2023-05-21T03:52:31.420Z,88.46
2023-05-21T03:54:03.025Z,86.91
2023-05-21T03:55:34.837Z,86.23
2023-05-21T03:57:07.905Z,86.32
2023-05-21T03:58:39.602Z,87.31
2023-05-21T04:00:11.886Z,87.81
2023-05-21T04:01:43.630Z,86.68
2023-05-21T04:03:15.550Z,87.00
2023-05-21T04:04:47.838Z,87.05
2023-05-21T04:06:19.669Z,86.88
2023-05-21T04:07:51.342Z,86.81
2023-05-21T04:09:23.105Z,87.37
2023-05-21T04:10:54.737Z,87.08
2023-05-21T04:12:27.719Z,87.56
2023-05-21T04:13:59.391Z,87.38
2023-05-21T04:15:31.207Z,86.16
2023-05-21T04:17:04.745Z,85.70
2023-05-21T04:18:36.461Z,85.65
2023-05-21T04:20:08.942Z,86.31
2023-05-21T04:21:40.588Z,88.73
2023-05-21T04:23:12.246Z,87.13
2023-05-21T04:24:46.490Z,88.09
2023-05-21T04:26:18.124Z,86.74
2023-05-21T04:27:51.134Z,88.18
2023-05-21T04:29:22.926Z,86.22
2023-05-21T04:30:56.493Z,85.98
2023-05-21T04:32:37.132Z,86.44
2023-05-21T04:34:08.826Z,85.78
2023-05-21T04:35:44.524Z,86.97
2023-05-21T04:37:17.973Z,86.32
2023-05-21T04:38:49.804Z,87.04
2023-05-21T04:40:24.344Z,86.26
2023-05-21T04:41:56.620Z,86.63
2023-05-21T04:43:29.674Z,85.83
2023-05-21T04:45:01.281Z,86.64
2023-05-21T04:46:34.842Z,86.27
2023-05-21T04:48:07.782Z,85.94
2023-05-21T04:49:39.534Z,86.01
2023-05-21T04:51:11.190Z,86.64
2023-05-21T04:52:42.830Z,86.21
2023-05-21T04:54:14.572Z,87.18
2023-05-21T04:55:47.016Z,86.31
2023-05-21T04:57:19.173Z,87.50
2023-05-21T04:58:52.849Z,89.02
2023-05-21T05:00:26.186Z,89.75
2023-05-21T05:01:57.851Z,87.21
2023-05-21T05:03:30.150Z,87.04
2023-05-21T05:05:01.855Z,86.88
2023-05-21T05:06:33.504Z,87.53
2023-05-21T05:08:06.860Z,89.28
2023-05-21T05:09:38.549Z,88.37
2023-05-21T05:11:10.172Z,86.94
2023-05-21T05:12:41.856Z,86.77
2023-05-21T05:14:14.856Z,88.22
2023-05-21T05:15:49.660Z,87.89
2023-05-21T05:17:21.863Z,87.92
2023-05-21T05:18:53.649Z,87.07
2023-05-21T05:20:25.445Z,85.46
2023-05-21T05:21:57.089Z,85.72
2023-05-21T05:23:28.720Z,86.26
2023-05-21T05:25:00.398Z,86.53
2023-05-21T05:26:32.088Z,86.16
2023-05-21T05:28:03.986Z,87.33
2023-05-21T05:29:36.980Z,85.93
2023-05-21T05:31:08.963Z,86.38
2023-05-21T05:32:40.652Z,86.67
2023-05-21T05:34:12.335Z,85.95
2023-05-21T05:35:43.966Z,85.96
2023-05-21T05:37:15.815Z,85.79
2023-05-21T05:38:47.459Z,86.36
2023-05-21T05:40:19.092Z,86.73
2023-05-21T05:41:50.775Z,86.11
2023-05-21T05:43:22.710Z,85.54
2023-05-21T05:44:55.956Z,86.28
2023-05-21T05:46:28.759Z,87.28
2023-05-21T05:48:00.431Z,86.80
2023-05-21T05:49:32.054Z,87.96
2023-05-21T05:51:04.033Z,87.34
2023-05-21T05:52:35.861Z,89.22
2023-05-21T05:54:07.528Z,88.19
2023-05-21T05:55:39.288Z,87.48
2023-05-21T05:57:11.058Z,87.54
2023-05-21T05:58:42.734Z,89.42
2023-05-21T06:00:16.683Z,88.96
2023-05-21T06:01:48.370Z,88.51
2023-05-21T06:03:20.165Z,89.51
2023-05-21T06:04:52.923Z,89.45
2023-05-21T06:06:24.632Z,88.98
2023-05-21T06:08:02.162Z,89.94
2023-05-21T06:09:33.786Z,87.96
2023-05-21T06:11:05.426Z,89.15
2023-05-21T06:12:37.104Z,87.74
2023-05-21T06:14:08.774Z,87.95
2023-05-21T06:15:44.851Z,89.40
2023-05-21T06:17:16.565Z,89.97
2023-05-21T06:18:48.215Z,89.67
2023-05-21T06:20:20.996Z,89.87
2023-05-21T06:21:52.734Z,90.08
2023-05-21T06:23:24.380Z,89.24
2023-05-21T06:24:56.110Z,88.82
2023-05-21T06:26:27.754Z,88.70
2023-05-21T06:27:59.432Z,89.74
2023-05-21T06:29:31.061Z,88.71
2023-05-21T06:31:04.137Z,88.30
2023-05-21T06:32:35.962Z,86.86
2023-05-21T06:34:07.797Z,86.90
2023-05-21T06:35:40.239Z,87.58
2023-05-21T06:37:11.875Z,86.04
2023-05-21T06:38:43.503Z,89.28
2023-05-21T06:40:15.517Z,88.59
2023-05-21T06:41:47.176Z,88.63
2023-05-21T06:43:18.804Z,88.11
2023-05-21T06:44:50.418Z,88.10
2023-05-21T06:46:23.461Z,86.89
2023-05-21T06:47:55.199Z,87.75
2023-05-21T06:49:27.080Z,86.65
2023-05-21T06:50:58.788Z,87.62
2023-05-21T06:52:31.776Z,87.08
2023-05-21T06:54:03.894Z,87.50
2023-05-21T06:55:35.727Z,86.11
2023-05-21T06:57:07.448Z,86.88
2023-05-21T06:58:39.328Z,86.99
2023-05-21T07:00:12.356Z,87.49
2023-05-21T07:01:45.434Z,87.25
2023-05-21T07:03:17.461Z,87.15
2023-05-21T07:04:49.293Z,86.78
2023-05-21T07:06:20.972Z,86.55
2023-05-21T07:07:52.593Z,86.99
2023-05-21T07:09:24.257Z,85.89
2023-05-21T07:10:58.673Z,86.79
2023-05-21T07:12:30.440Z,86.58
2023-05-21T07:14:02.228Z,86.53
2023-05-21T07:15:33.845Z,86.56
2023-05-21T07:17:07.113Z,85.81
2023-05-21T07:18:38.933Z,86.30
2023-05-21T07:20:13.824Z,86.56
2023-05-21T07:21:49.269Z,86.43
2023-05-21T07:23:21.401Z,85.32
2023-05-21T07:24:54.298Z,86.07
2023-05-21T07:26:26.542Z,86.84
2023-05-21T07:28:00.941Z,85.55
2023-05-21T07:29:33.167Z,85.79
2023-05-21T07:31:05.096Z,83.96
2023-05-21T07:32:38.282Z,84.81
2023-05-21T07:34:11.769Z,86.02
2023-05-21T07:35:43.466Z,85.72
2023-05-21T07:37:15.675Z,86.75
2023-05-21T07:38:47.291Z,86.52
2023-05-21T07:40:22.035Z,85.69
2023-05-21T07:41:53.848Z,86.33
2023-05-21T07:43:25.519Z,85.00
2023-05-21T07:44:57.235Z,84.40
2023-05-21T07:46:28.952Z,84.56
2023-05-21T07:48:03.015Z,83.98
2023-05-21T07:49:34.731Z,84.39
2023-05-21T07:51:09.135Z,84.54
2023-05-21T07:52:40.889Z,83.23
2023-05-21T07:54:12.622Z,82.81
2023-05-21T07:55:48.000Z,82.92
2023-05-21T07:57:23.383Z,83.03
2023-05-21T07:58:55.059Z,81.90
2023-05-21T08:00:26.714Z,82.29
2023-05-21T08:01:58.457Z,82.50
2023-05-21T08:03:31.702Z,82.36
2023-05-21T08:05:03.616Z,82.00
2023-05-21T08:06:35.353Z,82.31
2023-05-21T08:08:07.076Z,81.84
2023-05-21T08:09:38.754Z,82.62
2023-05-21T08:11:10.407Z,82.32
2023-05-21T08:12:42.120Z,81.40
2023-05-21T08:14:13.908Z,81.05
2023-05-21T08:15:45.635Z,81.47
2023-05-21T08:17:17.393Z,80.85
2023-05-21T08:18:50.572Z,80.67
2023-05-21T08:20:22.522Z,80.80
2023-05-21T08:21:54.200Z,81.25
2023-05-21T08:23:29.007Z,80.91
2023-05-21T08:25:00.709Z,80.82
2023-05-21T08:26:32.409Z,80.62
2023-05-21T08:28:04.436Z,79.39
2023-05-21T08:29:36.136Z,79.88
2023-05-21T08:31:07.794Z,79.76
2023-05-21T08:32:42.980Z,79.98
2023-05-21T08:34:16.538Z,78.87
2023-05-21T08:35:48.171Z,79.51
2023-05-21T08:37:21.363Z,79.29
2023-05-21T08:38:52.999Z,78.67
2023-05-21T08:40:24.753Z,78.52
2023-05-21T08:41:58.526Z,79.06
2023-05-21T08:43:33.149Z,78.50
2023-05-21T08:45:08.736Z,78.21
2023-05-21T08:46:41.136Z,77.85
2023-05-21T08:48:13.186Z,77.90
2023-05-21T08:49:48.058Z,78.14
2023-05-21T08:51:19.690Z,76.85
2023-05-21T08:52:51.661Z,76.80
2023-05-21T08:54:23.670Z,76.40
2023-05-21T08:55:55.854Z,76.02
2023-05-21T08:57:27.652Z,76.20
2023-05-21T08:58:59.347Z,75.77
2023-05-21T09:00:31.140Z,75.32
2023-05-21T09:02:03.656Z,74.64
2023-05-21T09:03:39.351Z,75.90
2023-05-21T09:05:12.735Z,73.90
2023-05-21T09:06:44.772Z,73.48
2023-05-21T09:08:18.717Z,73.34
2023-05-21T09:09:53.478Z,74.21
2023-05-21T09:11:25.164Z,72.89
2023-05-21T09:12:56.914Z,73.29
2023-05-21T09:14:28.710Z,72.45
2023-05-21T09:16:00.551Z,72.50
2023-05-21T09:17:32.246Z,71.46
2023-05-21T09:19:04.794Z,71.37
2023-05-21T09:20:38.140Z,72.09
2023-05-21T09:22:10.298Z,72.98
2023-05-21T09:23:42.480Z,72.78
2023-05-21T09:25:16.305Z,73.03
2023-05-21T09:26:47.951Z,72.28
2023-05-21T09:28:19.674Z,70.67
2023-05-21T09:29:51.500Z,71.09
2023-05-21T09:31:24.058Z,71.95
2023-05-21T09:32:57.205Z,71.98
2023-05-21T09:34:28.969Z,72.74
2023-05-21T09:36:02.674Z,72.96
2023-05-21T09:37:37.769Z,72.21
2023-05-21T09:39:11.803Z,72.32
2023-05-21T09:40:44.476Z,71.52
2023-05-21T09:42:16.300Z,71.89
2023-05-21T09:43:47.977Z,72.48
2023-05-21T09:45:20.110Z,73.35
2023-05-21T09:48:37.212Z,73.38
2023-05-21T09:50:12.908Z,74.19
2023-05-21T09:51:46.282Z,74.02
2023-05-21T09:53:18.117Z,73.03
2023-05-21T09:54:52.930Z,74.40
2023-05-21T09:56:25.640Z,73.67
2023-05-21T09:57:58.150Z,72.53
2023-05-21T09:59:36.573Z,72.56
2023-05-21T10:01:08.535Z,74.80
2023-05-21T10:02:40.186Z,71.46
2023-05-21T10:04:11.930Z,73.17
2023-05-21T10:05:43.717Z,70.78
2023-05-21T10:07:18.231Z,72.41
2023-05-21T10:08:51.374Z,72.42
2023-05-21T10:10:26.483Z,72.15
2023-05-21T10:12:00.368Z,71.28
2023-05-21T10:13:32.229Z,70.71
2023-05-21T10:15:04.738Z,70.24
2023-05-21T10:16:36.958Z,72.76
2023-05-21T10:18:09.221Z,69.28
2023-05-21T10:19:40.981Z,68.93
2023-05-21T10:21:13.333Z,69.57
2023-05-21T10:22:46.325Z,68.98
2023-05-21T10:24:18.615Z,66.66
2023-05-21T10:25:50.413Z,68.95
2023-05-21T10:27:22.767Z,65.99
2023-05-21T10:28:56.658Z,67.23
2023-05-21T10:30:28.290Z,64.72
2023-05-21T10:32:00.902Z,66.63
2023-05-21T10:33:33.587Z,67.29
2023-05-21T10:35:06.678Z,64.33
2023-05-21T10:36:38.290Z,63.89
2023-05-21T10:38:11.497Z,63.71
2023-05-21T10:39:43.253Z,63.31
2023-05-21T10:41:15.115Z,63.33
2023-05-21T10:43:03.018Z,65.37
2023-05-21T10:44:40.585Z,63.75
2023-05-21T10:46:18.717Z,64.29
2023-05-21T10:48:03.502Z,64.28
2023-05-21T10:49:50.585Z,64.03
2023-05-21T10:51:23.817Z,62.74
2023-05-21T10:53:01.777Z,63.39
2023-05-21T10:54:48.705Z,63.16
2023-05-21T10:56:23.160Z,63.14
2023-05-21T10:58:26.527Z,62.17
2023-05-21T10:59:59.679Z,64.69
2023-05-21T11:01:34.129Z,63.13
2023-05-21T11:03:06.453Z,60.23
2023-05-21T11:04:40.204Z,62.78
2023-05-21T11:06:11.938Z,61.33
2023-05-21T11:07:53.894Z,62.12
2023-05-21T11:09:26.356Z,60.69
2023-05-21T11:10:59.493Z,60.85
2023-05-21T11:12:34.900Z,64.12
2023-05-21T11:14:32.636Z,62.09
2023-05-21T11:16:08.054Z,63.25
2023-05-21T11:17:40.249Z,62.58
2023-05-21T11:19:16.914Z,62.62
2023-05-21T11:20:51.121Z,63.21
2023-05-21T11:22:23.338Z,63.57
2023-05-21T11:23:58.118Z,63.40
2023-05-21T11:25:29.885Z,65.55
2023-05-21T11:27:05.010Z,64.97
2023-05-21T11:28:37.073Z,63.98
2023-05-21T11:30:09.721Z,63.89
2023-05-21T11:31:45.545Z,64.20
2023-05-21T11:33:20.637Z,65.21
2023-05-21T11:34:52.415Z,62.31
2023-05-21T11:36:24.116Z,59.83
2023-05-21T11:37:55.751Z,59.86
2023-05-21T11:39:27.481Z,58.87
2023-05-21T11:41:01.633Z,58.61
2023-05-21T11:42:35.217Z,59.49
2023-05-21T11:44:08.632Z,58.47
2023-05-21T11:45:40.460Z,58.01
2023-05-21T11:47:12.642Z,59.61
2023-05-21T11:48:44.337Z,59.42
2023-05-21T11:50:16.724Z,59.15
2023-05-21T11:51:48.343Z,56.96
2023-05-21T11:53:19.972Z,57.34
2023-05-21T11:54:55.025Z,57.93
2023-05-21T11:56:26.703Z,59.05
2023-05-21T11:57:59.876Z,59.82
2023-05-21T11:59:33.368Z,54.97
2023-05-21T12:01:05.174Z,54.55
2023-05-21T12:02:36.951Z,55.44
2023-05-21T12:04:08.739Z,54.88
2023-05-21T12:05:44.835Z,51.56
2023-05-21T12:07:17.839Z,52.64
2023-05-21T12:08:52.160Z,54.32
2023-05-21T12:10:24.348Z,52.17
2023-05-21T12:11:56.399Z,51.48
2023-05-21T12:13:29.470Z,52.25
2023-05-21T12:15:03.089Z,48.09
2023-05-21T12:16:35.067Z,49.25
2023-05-21T12:18:06.806Z,52.46
2023-05-21T12:19:38.527Z,50.28
2023-05-21T12:21:12.383Z,51.68
2023-05-21T12:22:44.750Z,52.76
2023-05-21T12:24:16.551Z,51.16
2023-05-21T12:25:48.361Z,51.27
2023-05-21T12:27:21.053Z,53.34
2023-05-21T12:28:54.179Z,51.98
2023-05-21T12:30:26.064Z,52.08
2023-05-21T12:31:59.339Z,54.08
2023-05-21T12:33:36.687Z,54.12
2023-05-21T12:35:08.978Z,52.13
2023-05-21T12:36:40.975Z,54.43
2023-05-21T12:38:12.672Z,53.07
2023-05-21T12:39:44.587Z,54.15
2023-05-21T12:41:16.550Z,53.57
2023-05-21T12:42:48.169Z,53.55
2023-05-21T12:44:21.227Z,54.96
2023-05-21T12:45:52.885Z,56.46
2023-05-21T12:47:25.710Z,55.81
2023-05-21T12:48:57.405Z,55.72
2023-05-21T12:50:29.014Z,55.78
2023-05-21T12:52:02.895Z,56.43
2023-05-21T12:53:38.011Z,55.83
2023-05-21T12:55:11.752Z,53.93
2023-05-21T12:56:46.483Z,53.24
2023-05-21T12:58:21.942Z,53.95
2023-05-21T12:59:58.394Z,53.89
2023-05-21T13:01:30.228Z,57.19
2023-05-21T13:03:04.357Z,54.73
2023-05-21T13:04:36.472Z,53.19
2023-05-21T13:06:08.463Z,54.53
2023-05-21T13:07:40.108Z,56.64
2023-05-21T13:09:11.765Z,53.77
2023-05-21T13:10:43.482Z,52.98
2023-05-21T13:12:15.391Z,54.61
2023-05-21T13:13:46.997Z,54.90
2023-05-21T13:15:20.202Z,54.58
2023-05-21T13:16:51.866Z,53.81
2023-05-21T13:18:23.590Z,53.18
2023-05-21T13:20:07.107Z,51.58
2023-05-21T13:21:38.939Z,52.13
2023-05-21T13:23:11.926Z,54.58
2023-05-21T13:24:43.638Z,54.31
2023-05-21T13:26:15.604Z,52.21
2023-05-21T13:27:47.356Z,51.41
2023-05-21T13:29:18.969Z,51.95
2023-05-21T13:30:54.952Z,52.30
2023-05-21T13:32:26.744Z,52.42
2023-05-21T13:33:58.432Z,51.92
2023-05-21T13:35:34.587Z,52.31
2023-05-21T13:37:06.369Z,53.02
2023-05-21T13:38:38.006Z,51.97
2023-05-21T13:40:15.042Z,51.15
2023-05-21T13:41:47.876Z,51.10
2023-05-21T13:43:19.504Z,51.20
2023-05-21T13:44:51.285Z,50.32
2023-05-21T13:46:27.129Z,50.68
2023-05-21T13:47:58.959Z,50.83
2023-05-21T13:49:30.726Z,50.18
2023-05-21T13:51:02.351Z,49.85
2023-05-21T13:52:34.050Z,50.69
2023-05-21T13:54:05.849Z,51.74
2023-05-21T13:55:37.554Z,51.15
2023-05-21T13:57:09.305Z,48.22
2023-05-21T13:58:40.978Z,48.82
2023-05-21T14:00:15.415Z,49.00
2023-05-21T14:01:49.890Z,49.63
2023-05-21T14:03:21.660Z,49.45
2023-05-21T14:04:53.761Z,48.78
2023-05-21T14:06:25.445Z,49.06
2023-05-21T14:07:57.226Z,47.53
2023-05-21T14:09:29.210Z,47.55
2023-05-21T14:11:03.319Z,46.79
2023-05-21T14:12:36.638Z,43.75
2023-05-21T14:14:08.287Z,45.11
2023-05-21T14:15:39.920Z,44.92
2023-05-21T14:17:13.162Z,43.67
2023-05-21T14:18:44.835Z,43.57
2023-05-21T14:20:16.462Z,43.40
2023-05-21T14:21:48.098Z,44.19
2023-05-21T14:23:19.733Z,44.18
2023-05-21T14:24:51.342Z,43.69
2023-05-21T14:26:22.994Z,41.79
2023-05-21T14:27:54.792Z,43.42
2023-05-21T14:29:26.402Z,42.65
2023-05-21T14:30:58.088Z,43.39
2023-05-21T14:32:31.881Z,44.39
2023-05-21T14:34:03.683Z,43.47
2023-05-21T14:35:35.799Z,47.80
2023-05-21T14:37:07.692Z,43.01
2023-05-21T14:38:39.478Z,42.74
2023-05-21T14:40:12.228Z,43.73
2023-05-21T14:41:43.971Z,42.07
2023-05-21T14:43:15.788Z,44.45
2023-05-21T14:44:47.424Z,46.14
2023-05-21T14:46:19.307Z,43.49
2023-05-21T14:47:52.390Z,43.12
2023-05-21T14:49:24.082Z,44.68
2023-05-21T14:50:55.727Z,44.62
2023-05-21T14:52:27.662Z,43.00
2023-05-21T14:53:59.285Z,44.04
2023-05-21T14:55:34.121Z,46.96
2023-05-21T14:57:07.734Z,44.47
2023-05-21T14:58:39.499Z,44.34
2023-05-21T15:00:12.644Z,43.74
2023-05-21T15:01:44.450Z,44.04
2023-05-21T15:03:17.763Z,44.95
2023-05-21T15:04:49.441Z,45.01
2023-05-21T15:06:21.138Z,45.00
2023-05-21T15:07:52.802Z,43.31
2023-05-21T15:09:24.462Z,44.47
2023-05-21T15:10:56.919Z,44.31
2023-05-21T15:12:28.545Z,44.96
2023-05-21T15:14:00.277Z,44.72
2023-05-21T15:15:31.897Z,44.96
2023-05-21T15:17:03.781Z,44.24
2023-05-21T15:18:36.725Z,44.32
2023-05-21T15:20:09.476Z,45.62
2023-05-21T15:21:41.287Z,45.86
2023-05-21T15:23:17.377Z,45.46
2023-05-21T15:24:49.584Z,44.62
2023-05-21T15:26:21.589Z,45.21
2023-05-21T15:27:53.351Z,47.34
2023-05-21T15:29:25.041Z,46.07
2023-05-21T15:30:56.972Z,46.01
2023-05-21T15:32:28.769Z,45.75
2023-05-21T15:34:01.770Z,46.21
2023-05-21T15:35:34.494Z,48.36
2023-05-21T15:37:06.228Z,46.07
2023-05-21T15:38:38.046Z,45.95
2023-05-21T15:40:10.397Z,46.77
2023-05-21T15:41:42.060Z,46.85
2023-05-21T15:43:13.686Z,46.88
2023-05-21T15:44:45.337Z,47.43
2023-05-21T15:46:17.060Z,47.71
2023-05-21T15:47:48.727Z,48.10
2023-05-21T15:49:21.900Z,48.36
2023-05-21T15:50:54.333Z,48.64
2023-05-21T15:52:26.040Z,49.39
2023-05-21T15:53:57.690Z,49.09
2023-05-21T15:55:32.045Z,49.74
2023-05-21T15:57:03.901Z,50.82
2023-05-21T15:58:35.549Z,50.18
2023-05-21T16:00:08.992Z,49.80
2023-05-21T16:01:40.673Z,50.24
2023-05-21T16:03:12.712Z,50.16
2023-05-21T16:04:45.887Z,49.53
2023-05-21T16:06:17.604Z,48.50
2023-05-21T16:07:49.820Z,48.75
2023-05-21T16:09:21.476Z,49.31
2023-05-21T16:10:53.120Z,48.87
2023-05-21T16:12:24.840Z,49.37
2023-05-21T16:13:56.492Z,47.38
2023-05-21T16:15:32.237Z,47.63
2023-05-21T16:17:04.248Z,48.34
2023-05-21T16:18:36.854Z,48.31
2023-05-21T16:20:10.723Z,48.07
2023-05-21T16:21:42.362Z,48.58
2023-05-21T16:23:14.022Z,53.42
2023-05-21T16:24:45.684Z,48.80
2023-05-21T16:26:17.414Z,47.74
2023-05-21T16:27:49.188Z,47.78
2023-05-21T16:29:22.075Z,48.55
2023-05-21T16:30:54.006Z,48.31
2023-05-21T16:32:25.802Z,48.70
2023-05-21T16:33:57.642Z,48.62
2023-05-21T16:35:33.621Z,47.99
2023-05-21T16:37:05.692Z,48.96
2023-05-21T16:38:38.130Z,48.77
2023-05-21T16:40:10.779Z,49.25
2023-05-21T16:41:43.273Z,48.94
2023-05-21T16:43:14.957Z,48.59
2023-05-21T16:44:47.600Z,48.73
2023-05-21T16:46:19.377Z,49.74
2023-05-21T16:47:51.387Z,49.92
2023-05-21T16:49:23.061Z,49.15
2023-05-21T16:50:56.238Z,51.86
2023-05-21T16:52:27.938Z,50.03
2023-05-21T16:53:59.888Z,50.34
2023-05-21T16:55:31.769Z,50.13
2023-05-21T16:57:03.507Z,50.02
2023-05-21T16:58:36.081Z,50.15
2023-05-21T17:00:08.794Z,50.57
2023-05-21T17:01:40.475Z,50.76
2023-05-21T17:03:12.656Z,51.11
2023-05-21T17:04:44.625Z,51.73
2023-05-21T17:06:17.634Z,51.32
2023-05-21T17:07:49.430Z,51.17
2023-05-21T17:09:21.067Z,51.79
2023-05-21T17:10:52.727Z,52.37
2023-05-21T17:12:24.565Z,51.91
2023-05-21T17:13:56.273Z,53.18
2023-05-21T17:15:27.987Z,52.89
2023-05-21T17:16:59.674Z,55.94
2023-05-21T17:18:31.395Z,55.21
2023-05-21T17:20:03.428Z,53.83
2023-05-21T17:21:36.433Z,57.70
2023-05-21T17:23:08.144Z,54.81
2023-05-21T17:24:42.477Z,55.24
2023-05-21T17:26:14.503Z,55.83
2023-05-21T17:27:46.265Z,55.86
2023-05-21T17:29:18.586Z,56.70
2023-05-21T17:30:50.621Z,56.40
2023-05-21T17:32:22.345Z,57.00
2023-05-21T17:33:56.211Z,58.97
2023-05-21T17:35:28.084Z,58.19
2023-05-21T17:37:01.374Z,58.63
2023-05-21T17:38:33.297Z,59.27
2023-05-21T17:40:06.155Z,57.94
2023-05-21T17:41:38.233Z,59.12
2023-05-21T17:43:10.031Z,59.96
2023-05-21T17:44:41.761Z,59.84
2023-05-21T17:46:17.592Z,60.90
2023-05-21T17:47:49.384Z,61.20
2023-05-21T17:49:21.327Z,60.00
2023-05-21T17:50:52.970Z,60.30
2023-05-21T17:52:26.949Z,60.80
2023-05-21T17:53:58.678Z,59.78
2023-05-21T17:55:30.559Z,59.32
2023-05-21T17:57:02.530Z,58.57
2023-05-21T17:58:34.857Z,58.41
2023-05-21T18:00:08.229Z,56.84
2023-05-21T18:01:40.156Z,58.12
2023-05-21T18:03:11.816Z,59.70
2023-05-21T18:04:43.504Z,58.79
2023-05-21T18:06:15.546Z,58.88
2023-05-21T18:07:48.527Z,59.82
2023-05-21T18:09:20.488Z,57.58
2023-05-21T18:10:52.442Z,58.77
2023-05-21T18:12:24.090Z,59.42
2023-05-21T18:13:55.728Z,59.40
2023-05-21T18:15:27.332Z,59.86
2023-05-21T18:16:59.038Z,58.16
2023-05-21T18:18:31.042Z,58.65
2023-05-21T18:20:04.069Z,58.66
2023-05-21T18:21:35.737Z,60.47
2023-05-21T18:23:08.732Z,60.82
2023-05-21T18:24:40.512Z,59.31
2023-05-21T18:26:12.231Z,60.24
2023-05-21T18:27:43.890Z,60.52
2023-05-21T18:29:15.687Z,59.74
2023-05-21T18:30:47.416Z,61.08
2023-05-21T18:32:19.182Z,61.22
2023-05-21T18:33:50.965Z,60.28
2023-05-21T18:35:22.661Z,61.33
2023-05-21T18:36:54.615Z,61.85
2023-05-21T18:38:27.645Z,62.17
2023-05-21T18:39:59.367Z,62.84
2023-05-21T18:41:31.191Z,62.71
2023-05-21T18:43:06.417Z,62.31
2023-05-21T18:44:38.078Z,60.84
2023-05-21T18:46:09.759Z,61.75
2023-05-21T18:47:42.928Z,61.49
2023-05-21T18:49:14.724Z,62.38
2023-05-21T18:50:46.602Z,62.00
2023-05-21T18:52:18.258Z,63.59
2023-05-21T18:53:51.471Z,64.03
2023-05-21T18:55:23.407Z,63.67
2023-05-21T18:56:59.526Z,63.73
2023-05-21T18:58:33.117Z,62.79
2023-05-21T19:00:07.074Z,63.24
2023-05-21T19:01:38.869Z,63.04
2023-05-21T19:03:11.140Z,62.72
2023-05-21T19:04:42.901Z,64.43
2023-05-21T19:06:14.596Z,63.89
2023-05-21T19:07:46.538Z,64.88
2023-05-21T19:09:19.567Z,65.26
2023-05-21T19:10:52.891Z,64.70
2023-05-21T19:12:24.536Z,64.21
2023-05-21T19:13:56.177Z,64.31
2023-05-21T19:15:27.835Z,63.17
2023-05-21T19:16:59.531Z,63.74
2023-05-21T19:18:32.357Z,63.25
2023-05-21T19:20:05.364Z,64.03
2023-05-21T19:21:37.135Z,62.86
2023-05-21T19:23:08.880Z,62.70
2023-05-21T19:24:41.967Z,64.89
2023-05-21T19:26:13.844Z,64.06
2023-05-21T19:27:45.489Z,64.06
2023-05-21T19:29:17.208Z,63.99
2023-05-21T19:30:48.874Z,63.73
2023-05-21T19:32:21.249Z,64.50
2023-05-21T19:33:52.948Z,64.08
2023-05-21T19:35:24.717Z,65.08
2023-05-21T19:36:56.481Z,65.53
2023-05-21T19:38:28.120Z,64.84
2023-05-21T19:40:01.169Z,65.88
2023-05-21T19:41:33.077Z,64.33
2023-05-21T19:43:04.930Z,65.44
2023-05-21T19:44:39.184Z,65.86
2023-05-21T19:46:11.340Z,65.27
2023-05-21T19:47:43.393Z,66.06
2023-05-21T19:49:15.893Z,66.36
2023-05-21T19:50:47.653Z,64.98
2023-05-21T19:52:19.432Z,66.50
2023-05-21T19:53:51.391Z,66.70
2023-05-21T19:55:24.824Z,66.90